createdAt,value
2018-06-14T00:01:34.949Z,10.30
2018-06-14T00:04:03.418Z,10.30
2018-06-14T00:06:31.779Z,10.20
2018-06-14T00:09:00.214Z,10.30
2018-06-14T00:11:28.595Z,10.30
2018-06-14T00:13:57.014Z,10.30
2018-06-14T00:16:25.371Z,10.20
2018-06-14T00:18:53.839Z,10.20
2018-06-14T00:21:22.236Z,10.20
2018-06-14T00:23:50.772Z,10.20
2018-06-14T00:26:19.259Z,10.20
2018-06-14T00:28:47.676Z,10.10
2018-06-14T00:31:16.051Z,10.10
2018-06-14T00:33:44.520Z,10.30
2018-06-14T00:36:12.986Z,10.20
2018-06-14T00:38:41.404Z,10.20
2018-06-14T00:41:09.828Z,10.20
2018-06-14T00:43:38.262Z,10.10
2018-06-14T00:46:06.736Z,10.30
2018-06-14T00:48:35.092Z,10.30
2018-06-14T00:51:03.459Z,10.20
2018-06-14T00:53:31.851Z,10.20
2018-06-14T00:56:00.201Z,10.10
2018-06-14T00:58:28.582Z,10.10
2018-06-14T01:00:56.984Z,10.00
2018-06-14T01:03:25.389Z,10.00
2018-06-14T01:05:53.807Z,10.00
2018-06-14T01:08:22.157Z,10.00
2018-06-14T01:10:50.536Z,9.90
2018-06-14T01:13:18.943Z,10.10
2018-06-14T01:15:47.323Z,10.10
2018-06-14T01:18:15.908Z,10.00
2018-06-14T01:20:44.266Z,9.90
2018-06-14T01:23:12.638Z,10.00
2018-06-14T01:25:41.117Z,10.00
2018-06-14T01:28:09.512Z,9.90
2018-06-14T01:30:37.907Z,10.00
2018-06-14T01:33:06.305Z,9.90
2018-06-14T01:35:34.718Z,9.90
2018-06-14T01:38:15.327Z,9.90
2018-06-14T01:40:43.726Z,9.80
2018-06-14T01:43:12.085Z,9.80
2018-06-14T01:45:40.472Z,9.80
2018-06-14T01:48:08.802Z,9.80
2018-06-14T01:50:37.220Z,9.70
2018-06-14T01:53:05.670Z,9.80
2018-06-14T01:55:34.463Z,9.70
2018-06-14T01:58:03.928Z,9.70
2018-06-14T02:00:32.348Z,9.70
2018-06-14T02:03:00.719Z,9.80
2018-06-14T02:05:29.514Z,9.80
2018-06-14T02:07:58.388Z,9.70
2018-06-14T02:10:27.104Z,9.70
2018-06-14T02:12:55.494Z,9.60
2018-06-14T02:15:23.961Z,9.70
2018-06-14T02:17:52.260Z,9.70
2018-06-14T02:20:20.679Z,9.70
2018-06-14T02:22:49.052Z,9.70
2018-06-14T02:25:17.544Z,9.70
2018-06-14T02:27:45.944Z,9.80
2018-06-14T02:30:14.256Z,9.70
2018-06-14T02:32:42.670Z,9.60
2018-06-14T02:35:11.033Z,9.60
2018-06-14T02:37:40.924Z,9.60
2018-06-14T02:40:10.829Z,9.50
2018-06-14T02:42:39.230Z,9.50
2018-06-14T02:45:07.559Z,9.60
2018-06-14T02:47:35.905Z,9.50
2018-06-14T02:50:04.693Z,9.60
2018-06-14T02:52:33.204Z,9.60
2018-06-14T02:55:01.543Z,9.60
2018-06-14T02:57:29.938Z,9.60
2018-06-14T02:59:58.571Z,9.60
2018-06-14T03:02:27.017Z,9.60
2018-06-14T03:04:55.455Z,9.50
2018-06-14T03:07:29.099Z,9.60
2018-06-14T03:09:57.513Z,9.60
2018-06-14T03:12:26.145Z,9.60
2018-06-14T03:14:54.511Z,9.60
2018-06-14T03:17:22.894Z,9.50
2018-06-14T03:19:52.449Z,9.50
2018-06-14T03:22:22.029Z,9.50
2018-06-14T03:24:50.515Z,9.60
2018-06-14T03:27:18.893Z,9.40
2018-06-14T03:29:47.644Z,9.40
2018-06-14T03:32:16.043Z,9.40
2018-06-14T03:34:45.764Z,9.40
2018-06-14T03:37:14.196Z,9.30
2018-06-14T03:39:42.620Z,9.30
2018-06-14T03:42:12.876Z,9.40
2018-06-14T03:44:41.437Z,9.40
2018-06-14T03:47:10.115Z,9.40
2018-06-14T03:49:40.396Z,9.40
2018-06-14T03:52:09.957Z,9.30
2018-06-14T03:57:28.829Z,9.30
2018-06-14T03:59:57.254Z,9.20
2018-06-14T04:02:25.663Z,9.30
2018-06-14T04:04:54.071Z,9.30
2018-06-14T04:09:50.520Z,9.30
2018-06-14T04:12:18.851Z,9.30
2018-06-14T04:14:47.225Z,9.30
2018-06-14T04:17:15.664Z,9.30
2018-06-14T04:22:12.221Z,9.30
2018-06-14T04:27:08.747Z,9.40
2018-06-14T04:29:37.115Z,9.40
2018-06-14T04:32:05.478Z,9.50
2018-06-14T04:34:33.876Z,9.50
2018-06-14T04:37:02.271Z,9.50
2018-06-14T04:39:30.791Z,9.50
2018-06-14T04:41:59.135Z,9.50
2018-06-14T04:44:27.501Z,9.60
2018-06-14T04:46:55.825Z,9.60
2018-06-14T04:49:24.180Z,9.60
2018-06-14T04:51:52.547Z,9.60
2018-06-14T04:54:21.069Z,9.70
2018-06-14T04:56:49.518Z,9.70
2018-06-14T04:59:17.860Z,9.80
2018-06-14T05:01:46.239Z,9.90
2018-06-14T05:04:14.641Z,9.80
2018-06-14T05:09:12.681Z,9.90
2018-06-14T05:11:41.467Z,10.00
2018-06-14T05:14:10.105Z,10.10
2018-06-14T05:16:38.516Z,10.30
2018-06-14T05:19:07.213Z,10.50
2018-06-14T05:21:35.535Z,10.60
2018-06-14T05:26:32.111Z,10.70
2018-06-14T05:29:01.278Z,10.80
2018-06-14T05:31:29.703Z,10.80
2018-06-14T05:33:58.132Z,11.10
2018-06-14T05:36:26.650Z,11.20
2018-06-14T05:38:55.085Z,11.30
2018-06-14T05:41:23.402Z,11.40
2018-06-14T05:43:51.773Z,11.50
2018-06-14T05:46:20.106Z,11.60
2018-06-14T05:48:48.506Z,11.70
2018-06-14T05:51:16.939Z,11.80
2018-06-14T05:53:45.418Z,12.00
2018-06-14T05:56:13.787Z,12.10
2018-06-14T05:58:42.248Z,12.30
2018-06-14T06:01:10.698Z,12.40
2018-06-14T06:03:39.109Z,12.40
2018-06-14T06:06:07.397Z,12.60
2018-06-14T06:08:35.947Z,12.70
2018-06-14T06:11:04.337Z,12.90
2018-06-14T06:13:32.691Z,12.90
2018-06-14T06:16:01.070Z,13.00
2018-06-14T06:18:29.502Z,13.10
2018-06-14T06:20:57.829Z,13.10
2018-06-14T06:23:26.267Z,13.10
2018-06-14T06:25:54.683Z,13.30
2018-06-14T06:28:23.037Z,13.50
2018-06-14T06:30:51.456Z,13.70
2018-06-14T06:33:19.999Z,13.80
2018-06-14T06:35:48.388Z,13.90
2018-06-14T06:38:16.767Z,14.00
2018-06-14T06:40:46.211Z,14.00
2018-06-14T06:43:14.652Z,14.10
2018-06-14T06:45:43.172Z,14.10
2018-06-14T06:48:11.611Z,14.20
2018-06-14T06:50:40.091Z,14.30
2018-06-14T06:53:08.585Z,14.40
2018-06-14T06:55:36.894Z,14.50
2018-06-14T06:58:05.344Z,14.60
2018-06-14T07:00:33.757Z,14.80
2018-06-14T07:03:02.142Z,14.80
2018-06-14T07:05:30.498Z,14.90
2018-06-14T07:07:58.925Z,14.80
2018-06-14T07:10:27.435Z,14.90
2018-06-14T07:12:55.794Z,15.00
2018-06-14T07:15:24.168Z,15.10
2018-06-14T07:17:52.496Z,15.10
2018-06-14T07:20:20.848Z,15.10
2018-06-14T07:22:49.291Z,15.10
2018-06-14T07:25:17.655Z,15.00
2018-06-14T07:27:46.197Z,15.00
2018-06-14T07:30:14.612Z,14.90
2018-06-14T07:32:42.955Z,14.90
2018-06-14T07:35:11.281Z,14.90
2018-06-14T07:37:39.763Z,14.80
2018-06-14T07:40:08.172Z,14.80
2018-06-14T07:42:36.597Z,14.90
2018-06-14T07:45:05.273Z,14.90
2018-06-14T07:47:33.624Z,14.90
2018-06-14T07:50:02.083Z,15.00
2018-06-14T07:52:30.500Z,14.90
2018-06-14T07:54:58.908Z,14.80
2018-06-14T07:57:27.271Z,14.90
2018-06-14T07:59:55.677Z,14.80
2018-06-14T08:02:24.065Z,14.80
2018-06-14T08:04:52.654Z,14.80
2018-06-14T08:07:21.036Z,14.90
2018-06-14T08:09:49.510Z,15.00
2018-06-14T08:12:17.863Z,15.10
2018-06-14T08:14:46.229Z,15.10
2018-06-14T08:17:15.578Z,15.30
2018-06-14T08:19:44.017Z,15.30
2018-06-14T08:22:12.425Z,15.50
2018-06-14T08:24:40.853Z,15.60
2018-06-14T08:27:09.229Z,15.70
2018-06-14T08:29:37.565Z,15.80
2018-06-14T08:32:06.220Z,16.00
2018-06-14T08:34:34.603Z,16.10
2018-06-14T08:37:02.993Z,16.20
2018-06-14T08:39:31.429Z,16.10
2018-06-14T08:41:59.835Z,16.20
2018-06-14T08:44:28.194Z,16.20
2018-06-14T08:46:56.588Z,16.30
2018-06-14T08:49:25.036Z,16.40
2018-06-14T08:51:53.420Z,16.50
2018-06-14T08:54:21.911Z,16.60
2018-06-14T08:56:50.374Z,17.00
2018-06-14T08:59:19.137Z,17.40
2018-06-14T09:01:47.546Z,17.60
2018-06-14T09:04:15.985Z,17.60
2018-06-14T09:06:44.566Z,17.70
2018-06-14T09:09:12.880Z,17.80
2018-06-14T09:11:41.522Z,18.10
2018-06-14T09:14:10.426Z,18.30
2018-06-14T09:16:39.513Z,18.60
2018-06-14T09:19:07.868Z,18.80
2018-06-14T09:21:36.343Z,19.10
2018-06-14T09:24:04.713Z,19.30
2018-06-14T09:26:33.128Z,19.50
2018-06-14T09:29:01.480Z,19.50
2018-06-14T09:31:29.859Z,19.80
2018-06-14T09:33:58.267Z,19.90
2018-06-14T09:36:26.673Z,19.90
2018-06-14T09:38:55.151Z,19.90
2018-06-14T09:41:23.536Z,19.80
2018-06-14T09:43:51.957Z,19.60
2018-06-14T09:46:20.299Z,19.70
2018-06-14T09:48:52.879Z,19.60
2018-06-14T09:51:21.381Z,19.70
2018-06-14T09:53:49.801Z,19.70
2018-06-14T09:56:18.256Z,19.50
2018-06-14T09:58:46.638Z,19.60
2018-06-14T10:01:15.001Z,19.90
2018-06-14T10:03:43.516Z,20.10
2018-06-14T10:06:11.972Z,20.40
2018-06-14T10:08:40.329Z,20.50
2018-06-14T10:11:08.807Z,20.30
2018-06-14T10:13:37.146Z,20.10
2018-06-14T10:16:05.604Z,20.10
2018-06-14T10:18:34.018Z,20.40
2018-06-14T10:21:02.343Z,20.70
2018-06-14T10:23:30.750Z,21.00
2018-06-14T10:25:59.108Z,21.00
2018-06-14T10:28:27.738Z,20.90
2018-06-14T10:30:56.111Z,20.90
2018-06-14T10:33:24.510Z,20.80
2018-06-14T10:35:52.799Z,20.60
2018-06-14T10:38:21.449Z,20.40
2018-06-14T10:40:49.808Z,20.30
2018-06-14T10:43:18.271Z,20.00
2018-06-14T10:45:46.715Z,19.90
2018-06-14T10:48:15.068Z,20.00
2018-06-14T10:50:43.476Z,20.10
2018-06-14T10:53:11.902Z,20.10
2018-06-14T10:55:40.430Z,20.30
2018-06-14T10:58:08.996Z,20.50
2018-06-14T11:00:37.450Z,20.80
2018-06-14T11:03:05.846Z,20.90
2018-06-14T11:05:34.221Z,20.80
2018-06-14T11:08:02.513Z,20.70
2018-06-14T11:10:30.990Z,20.70
2018-06-14T11:12:59.365Z,21.00
2018-06-14T11:15:28.128Z,21.40
2018-06-14T11:17:56.638Z,21.60
2018-06-14T11:20:25.050Z,21.80
2018-06-14T11:25:44.057Z,21.70
2018-06-14T11:28:12.427Z,21.60
2018-06-14T11:30:40.827Z,21.40
2018-06-14T11:33:09.192Z,21.20
2018-06-14T11:35:37.620Z,21.10
2018-06-14T11:38:06.011Z,21.10
2018-06-14T11:40:34.582Z,21.10
2018-06-14T11:43:02.989Z,20.90
2018-06-14T11:45:31.399Z,20.80
2018-06-14T11:47:59.837Z,20.90
2018-06-14T11:50:28.268Z,20.90
2018-06-14T11:52:56.605Z,20.70
2018-06-14T11:55:25.825Z,20.70
2018-06-14T11:57:54.147Z,20.90
2018-06-14T12:00:22.535Z,21.00
2018-06-14T12:02:51.120Z,21.10
2018-06-14T12:05:19.469Z,21.20
2018-06-14T12:07:47.884Z,21.10
2018-06-14T12:10:16.270Z,21.10
2018-06-14T12:12:44.642Z,21.10
2018-06-14T12:15:13.140Z,21.20
2018-06-14T12:17:41.452Z,21.30
2018-06-14T12:20:09.888Z,21.20
2018-06-14T12:22:38.286Z,21.10
2018-06-14T12:25:06.723Z,21.20
2018-06-14T12:27:35.124Z,21.30
2018-06-14T12:30:03.536Z,21.60
2018-06-14T12:32:31.960Z,21.80
2018-06-14T12:35:00.325Z,21.90
2018-06-14T12:37:28.669Z,22.10
2018-06-14T12:39:57.016Z,22.30
2018-06-14T12:42:25.362Z,22.50
2018-06-14T12:44:53.745Z,22.50
2018-06-14T12:47:22.051Z,22.70
2018-06-14T12:49:50.526Z,23.00
2018-06-14T12:52:18.895Z,23.10
2018-06-14T12:54:47.204Z,23.30
2018-06-14T12:57:15.514Z,23.40
2018-06-14T12:59:43.847Z,23.70
2018-06-14T13:02:12.167Z,24.10
2018-06-14T13:04:40.525Z,24.30
2018-06-14T13:07:08.960Z,24.30
2018-06-14T13:09:37.310Z,24.10
2018-06-14T13:12:05.770Z,23.90
2018-06-14T13:14:34.133Z,23.60
2018-06-14T13:17:02.483Z,23.30
2018-06-14T13:19:30.940Z,23.10
2018-06-14T13:21:59.323Z,22.60
2018-06-14T13:24:29.314Z,22.50
2018-06-14T13:26:57.669Z,22.60
2018-06-14T13:29:26.974Z,22.70
2018-06-14T13:31:55.400Z,22.80
2018-06-14T13:34:23.731Z,23.10
2018-06-14T13:36:52.108Z,23.00
2018-06-14T13:39:20.490Z,22.90
2018-06-14T13:41:48.938Z,23.20
2018-06-14T13:44:17.396Z,23.10
2018-06-14T13:46:45.806Z,23.20
2018-06-14T13:49:14.248Z,23.10
2018-06-14T13:51:42.633Z,23.10
2018-06-14T13:54:11.343Z,23.20
2018-06-14T13:56:39.687Z,23.40
2018-06-14T13:59:08.123Z,23.50
2018-06-14T14:01:36.467Z,23.50
2018-06-14T14:04:04.913Z,23.80
2018-06-14T14:06:33.366Z,24.00
2018-06-14T14:09:01.702Z,23.90
2018-06-14T14:11:30.074Z,23.80
2018-06-14T14:13:58.419Z,23.70
2018-06-14T14:16:26.912Z,23.40
2018-06-14T14:18:55.315Z,23.10
2018-06-14T14:21:23.607Z,23.20
2018-06-14T14:23:52.065Z,23.20
2018-06-14T14:26:20.455Z,23.10
2018-06-14T14:28:48.828Z,23.10
2018-06-14T14:31:17.265Z,23.20
2018-06-14T14:33:45.635Z,23.30
2018-06-14T14:36:14.093Z,23.60
2018-06-14T14:38:42.556Z,23.70
2018-06-14T14:41:10.886Z,23.60
2018-06-14T14:43:39.364Z,23.70
2018-06-14T14:46:08.040Z,23.80
2018-06-14T14:48:36.635Z,23.90
2018-06-14T14:51:05.027Z,24.10
2018-06-14T14:53:33.703Z,24.20
2018-06-14T14:56:02.340Z,24.40
2018-06-14T14:58:30.856Z,24.30
2018-06-14T15:00:59.498Z,24.50
2018-06-14T15:03:28.369Z,24.80
2018-06-14T15:05:56.930Z,24.90
2018-06-14T15:08:25.460Z,24.90
2018-06-14T15:10:53.908Z,24.60
2018-06-14T15:13:22.299Z,24.70
2018-06-14T15:15:50.653Z,24.90
2018-06-14T15:18:19.031Z,25.00
2018-06-14T15:20:47.409Z,25.20
2018-06-14T15:23:15.822Z,25.20
2018-06-14T15:25:44.261Z,25.20
2018-06-14T15:28:12.673Z,25.20
2018-06-14T15:30:41.010Z,25.40
2018-06-14T15:33:09.573Z,25.60
2018-06-14T15:35:37.965Z,25.70
2018-06-14T15:38:06.415Z,25.60
2018-06-14T15:40:34.877Z,25.80
2018-06-14T15:43:04.622Z,25.90
2018-06-14T15:45:33.496Z,25.70
2018-06-14T15:48:01.861Z,25.50
2018-06-14T15:50:30.318Z,25.40
2018-06-14T15:52:58.737Z,25.30
2018-06-14T15:55:38.595Z,25.00
2018-06-14T15:58:06.967Z,24.80
2018-06-14T16:00:35.321Z,24.60
2018-06-14T16:03:03.739Z,24.30
2018-06-14T16:05:32.230Z,24.10
2018-06-14T16:08:00.761Z,24.00
2018-06-14T16:10:29.140Z,23.80
2018-06-14T16:12:57.683Z,23.50
2018-06-14T16:15:26.383Z,23.30
2018-06-14T16:17:55.205Z,23.00
2018-06-14T16:20:23.796Z,22.80
2018-06-14T16:22:52.239Z,22.60
2018-06-14T16:25:20.617Z,22.40
2018-06-14T16:27:49.061Z,22.30
2018-06-14T16:30:17.553Z,22.20
2018-06-14T16:32:45.942Z,22.00
2018-06-14T16:35:14.286Z,21.80
2018-06-14T16:37:42.733Z,21.60
2018-06-14T16:40:11.033Z,21.60
2018-06-14T16:42:39.487Z,21.60
2018-06-14T16:45:07.849Z,21.50
2018-06-14T16:47:36.260Z,21.30
2018-06-14T16:50:04.734Z,21.20
2018-06-14T16:52:33.242Z,21.10
2018-06-14T16:55:01.449Z,21.20
2018-06-14T16:57:29.785Z,21.10
2018-06-14T16:59:59.148Z,21.10
2018-06-14T17:02:27.540Z,21.00
2018-06-14T17:04:55.914Z,20.90
2018-06-14T17:07:24.287Z,20.80
2018-06-14T17:09:52.707Z,20.80
2018-06-14T17:12:21.135Z,20.70
2018-06-14T17:14:49.481Z,20.60
2018-06-14T17:17:17.947Z,20.50
2018-06-14T17:19:46.331Z,20.40
2018-06-14T17:22:14.733Z,20.20
2018-06-14T17:24:43.104Z,20.10
2018-06-14T17:27:11.558Z,20.10
2018-06-14T17:29:39.857Z,20.10
2018-06-14T17:32:08.272Z,20.00
2018-06-14T17:34:37.035Z,19.90
2018-06-14T17:37:05.520Z,19.80
2018-06-14T17:39:34.004Z,19.70
2018-06-14T17:42:02.405Z,19.70
2018-06-14T17:44:30.811Z,19.60
2018-06-14T17:46:59.187Z,19.50
2018-06-14T17:49:27.560Z,19.40
2018-06-14T17:51:55.949Z,19.30
2018-06-14T17:54:24.348Z,19.20
2018-06-14T17:56:52.810Z,19.20
2018-06-14T17:59:21.195Z,19.00
2018-06-14T18:01:49.657Z,19.00
2018-06-14T18:04:18.019Z,18.90
2018-06-14T18:06:46.405Z,18.80
2018-06-14T18:09:14.773Z,18.70
2018-06-14T18:11:43.164Z,18.70
2018-06-14T18:14:11.501Z,18.60
2018-06-14T18:16:39.890Z,18.60
2018-06-14T18:19:08.322Z,18.50
2018-06-14T18:21:36.703Z,18.40
2018-06-14T18:24:05.086Z,18.30
2018-06-14T18:26:33.409Z,18.10
2018-06-14T18:29:01.758Z,17.90
2018-06-14T18:31:30.091Z,17.90
2018-06-14T18:33:58.441Z,17.80
2018-06-14T18:36:26.887Z,17.70
2018-06-14T18:38:55.283Z,17.60
2018-06-14T18:41:23.617Z,17.50
2018-06-14T18:43:52.092Z,17.50
2018-06-14T18:46:20.495Z,17.40
2018-06-14T18:48:48.945Z,17.30
2018-06-14T18:51:17.302Z,17.30
2018-06-14T18:53:45.699Z,17.20
2018-06-14T18:56:14.169Z,17.20
2018-06-14T18:58:42.554Z,17.10
2018-06-14T19:01:10.983Z,17.00
2018-06-14T19:03:39.382Z,17.00
2018-06-14T19:06:07.851Z,17.00
2018-06-14T19:08:36.137Z,16.90
2018-06-14T19:11:04.497Z,16.80
2018-06-14T19:13:32.825Z,16.80
2018-06-14T19:16:01.184Z,16.80
2018-06-14T19:18:29.595Z,16.70
2018-06-14T19:20:57.927Z,16.60
2018-06-14T19:23:26.286Z,16.50
2018-06-14T19:25:54.721Z,16.50
2018-06-14T19:28:23.140Z,16.40
2018-06-14T19:30:51.477Z,16.30
2018-06-14T19:33:19.976Z,16.30
2018-06-14T19:35:48.340Z,16.20
2018-06-14T19:38:16.671Z,16.20
2018-06-14T19:40:44.981Z,16.10
2018-06-14T19:43:13.388Z,16.10
2018-06-14T19:45:41.779Z,15.90
2018-06-14T19:48:10.211Z,15.90
2018-06-14T19:50:38.603Z,15.80
2018-06-14T19:53:06.962Z,15.80
2018-06-14T19:55:35.281Z,15.80
2018-06-14T19:58:03.738Z,15.70
2018-06-14T20:00:32.084Z,15.60
2018-06-14T20:03:00.488Z,15.70
2018-06-14T20:05:28.951Z,15.60
2018-06-14T20:07:57.342Z,15.60
2018-06-14T20:10:25.678Z,15.50
2018-06-14T20:12:54.092Z,15.50
2018-06-14T20:15:22.526Z,15.40
2018-06-14T20:17:50.819Z,15.50
2018-06-14T20:20:22.134Z,15.50
2018-06-14T20:22:50.586Z,15.40
2018-06-14T20:25:19.054Z,15.30
2018-06-14T20:27:47.444Z,15.40
2018-06-14T20:30:15.909Z,15.40
2018-06-14T20:32:44.299Z,15.40
2018-06-14T20:35:12.870Z,15.40
2018-06-14T20:37:41.318Z,15.30
2018-06-14T20:40:09.767Z,15.30
2018-06-14T20:42:44.711Z,15.30
2018-06-14T20:45:13.096Z,15.30
2018-06-14T20:47:41.420Z,15.30
2018-06-14T20:50:09.736Z,15.30
2018-06-14T20:52:38.213Z,15.30
2018-06-14T20:55:13.139Z,15.30
2018-06-14T20:57:41.606Z,15.30
2018-06-14T21:00:10.198Z,15.30
2018-06-14T21:02:38.672Z,15.20
2018-06-14T21:05:07.028Z,15.20
2018-06-14T21:07:35.444Z,15.10
2018-06-14T21:10:03.933Z,15.20
2018-06-14T21:12:32.308Z,15.10
2018-06-14T21:15:00.647Z,15.00
2018-06-14T21:17:28.982Z,15.10
2018-06-14T21:19:57.364Z,15.10
2018-06-14T21:22:25.800Z,15.10
2018-06-14T21:24:54.208Z,15.10
2018-06-14T21:27:22.576Z,15.10
2018-06-14T21:29:51.038Z,14.90
2018-06-14T21:32:19.373Z,14.90
2018-06-14T21:34:47.755Z,14.90
2018-06-14T21:39:44.209Z,14.80
2018-06-14T21:42:12.562Z,14.80
2018-06-14T21:44:40.998Z,14.70
2018-06-14T21:47:09.361Z,14.70
2018-06-14T21:49:37.740Z,14.70
2018-06-14T21:52:06.102Z,14.80
2018-06-14T21:54:34.497Z,14.90
2018-06-14T21:57:02.913Z,14.90
2018-06-14T21:59:31.258Z,14.80
2018-06-14T22:01:59.959Z,14.90
2018-06-14T22:04:28.382Z,14.90
2018-06-14T22:06:56.766Z,14.90
2018-06-14T22:09:25.145Z,14.80
2018-06-14T22:11:53.497Z,14.80
2018-06-14T22:14:21.971Z,14.80
2018-06-14T22:16:50.324Z,14.90
2018-06-14T22:19:18.784Z,14.80
2018-06-14T22:21:47.249Z,14.90
2018-06-14T22:24:15.612Z,14.90
2018-06-14T22:26:43.994Z,14.90
2018-06-14T22:29:12.415Z,14.80
2018-06-14T22:31:40.765Z,14.80
2018-06-14T22:34:20.270Z,14.90
2018-06-14T22:36:48.682Z,14.80
2018-06-14T22:39:17.065Z,14.80
2018-06-14T22:41:45.513Z,14.80
2018-06-14T22:44:13.917Z,14.90
2018-06-14T22:46:42.307Z,14.90
2018-06-14T22:49:10.713Z,14.80
2018-06-14T22:51:58.096Z,14.80
2018-06-14T22:54:26.521Z,14.80
2018-06-14T22:56:54.852Z,14.80
2018-06-14T22:59:23.216Z,14.70
2018-06-14T23:01:52.431Z,14.70
2018-06-14T23:04:26.133Z,14.70
2018-06-14T23:06:54.656Z,14.70
2018-06-14T23:10:36.510Z,14.70
2018-06-14T23:13:05.528Z,14.70
2018-06-14T23:15:33.879Z,14.60
2018-06-14T23:18:02.322Z,14.60
2018-06-14T23:20:31.865Z,14.70
2018-06-14T23:23:00.879Z,14.60
2018-06-14T23:25:29.901Z,14.60
2018-06-14T23:27:58.341Z,14.60
2018-06-14T23:30:26.784Z,14.60
2018-06-14T23:32:55.085Z,14.70
2018-06-14T23:35:23.493Z,14.70
2018-06-14T23:37:51.843Z,14.80
2018-06-14T23:40:20.206Z,14.70
2018-06-14T23:42:48.600Z,14.70
2018-06-14T23:45:17.005Z,14.70
2018-06-14T23:47:45.461Z,14.70
2018-06-14T23:50:13.837Z,14.70
2018-06-14T23:52:42.210Z,14.70
2018-06-14T23:55:10.561Z,14.60
2018-06-14T23:57:38.941Z,14.60
